Main page
METAR-TAF:

METAR-TAF

Airports :

Lappeenranta Airport

Lappeenranta, Finland

latitude: 61-02-45N, longitude: 028-08-55E, elevation: 106 m

Current weather observation

The report was made 21 minutes ago, at 15:50 UTC
Wind 8 kt from the Southwest, varying between South and West/Southwest
Temperature 19°C
Humidity 43%
Pressure 1015 hPa
Visibility 10 km or more
no clouds below 1500 m and no cumulonimbus

METAR: EFLP 151550Z AUTO 22008KT 170V250 CAVOK 19/06 Q1015

Time: 19:11 (16:11 UTC)

Forecast

The report was made 1 hour and 41 minutes ago, at 14:30 UTC
Forecast valid from 15 at 15 UTC to 15 at 18 UTC
Wind 6 kt from the West
Visibility 10 km or more
no clouds below 1500 m and no cumulonimbus

TAF: EFLP 151430Z 1515/1518 27006KT CAVOK

Weather observations and forecasts of more than 4000 airports (METAR and TAF reports).

The available stations are represented by yellow and red dots on the map.

Hover mouse over dot to see the name of the station.

Then click to see weather observations and forecasts.

To change the map : click on the green buttons with a black cross to zoom in, on the green button with a dash to zoom out, or on the green arrows for adjacent maps.


METAR-TAF: